« Back
NWS Peachtree City, Ga » Text Product » MCN Terminal Aerodrome Forecast


Printer-friendly Version
Current Version              Previous Versions:   1  2  3  4  5  6  7  8  9  

Terminal Aerodrome Forecast

855
FTUS42 KFFC 280533
TAFMCN
TAF
KMCN 280533Z 2806/2906 VRB03KT P6SM SCT035 BKN080
     FM280900 VRB03KT 5SM BR VCSH BKN015
     FM281400 14003KT P6SM BKN025 PROB30 2818/2824 3SM -TSRA
      BKN030CB
     FM290000 14004KT P6SM BKN035
     FM290400 10003KT P6SM BKN050=



USA.gov is the U.S. government's official web portal to all federal, state and local government web resources and services.